sensor_id;sensor_type;location;lat;lon;timestamp;temperature;humidity
17954;DHT22;9102;53.548;9.926;2023-05-29T00:00:26;12.50;99.90
17954;DHT22;9102;53.548;9.926;2023-05-29T00:02:54;12.50;99.90
17954;DHT22;9102;53.548;9.926;2023-05-29T00:05:21;12.50;99.90
17954;DHT22;9102;53.548;9.926;2023-05-29T00:07:47;12.40;99.90
17954;DHT22;9102;53.548;9.926;2023-05-29T00:10:16;12.40;99.90
17954;DHT22;9102;53.548;9.926;2023-05-29T00:12:43;12.40;99.90
17954;DHT22;9102;53.548;9.926;2023-05-29T00:15:10;12.20;99.90
17954;DHT22;9102;53.548;9.926;2023-05-29T00:17:38;12.10;99.90
17954;DHT22;9102;53.548;9.926;2023-05-29T00:20:08;12.20;99.90
17954;DHT22;9102;53.548;9.926;2023-05-29T00:22:36;12.10;99.90
17954;DHT22;9102;53.548;9.926;2023-05-29T00:25:04;12.10;99.90
17954;DHT22;9102;53.548;9.926;2023-05-29T00:27:31;12.10;99.90
17954;DHT22;9102;53.548;9.926;2023-05-29T00:29:58;12.10;99.90
17954;DHT22;9102;53.548;9.926;2023-05-29T00:32:25;12.00;99.90
17954;DHT22;9102;53.548;9.926;2023-05-29T00:34:52;12.00;99.90
17954;DHT22;9102;53.548;9.926;2023-05-29T00:37:21;11.90;99.90
17954;DHT22;9102;53.548;9.926;2023-05-29T00:39:48;11.90;99.90
17954;DHT22;9102;53.548;9.926;2023-05-29T00:42:15;11.80;99.90
17954;DHT22;9102;53.548;9.926;2023-05-29T00:44:42;11.70;99.90
17954;DHT22;9102;53.548;9.926;2023-05-29T00:47:09;11.60;99.90
17954;DHT22;9102;53.548;9.926;2023-05-29T00:49:36;11.50;99.90
17954;DHT22;9102;53.548;9.926;2023-05-29T00:52:05;11.50;99.90
17954;DHT22;9102;53.548;9.926;2023-05-29T00:54:34;11.40;99.90
17954;DHT22;9102;53.548;9.926;2023-05-29T00:57:02;11.40;99.90
17954;DHT22;9102;53.548;9.926;2023-05-29T00:59:31;11.20;99.90
17954;DHT22;9102;53.548;9.926;2023-05-29T01:02:00;11.20;99.90
17954;DHT22;9102;53.548;9.926;2023-05-29T01:04:27;11.10;99.90
17954;DHT22;9102;53.548;9.926;2023-05-29T01:06:54;11.00;99.90
17954;DHT22;9102;53.548;9.926;2023-05-29T01:09:22;10.90;99.90
17954;DHT22;9102;53.548;9.926;2023-05-29T01:11:58;10.90;99.90
17954;DHT22;9102;53.548;9.926;2023-05-29T01:14:32;10.90;99.90
17954;DHT22;9102;53.548;9.926;2023-05-29T01:17:11;10.90;99.90
17954;DHT22;9102;53.548;9.926;2023-05-29T01:19:58;10.80;99.90
17954;DHT22;9102;53.548;9.926;2023-05-29T01:22:34;10.70;99.90
17954;DHT22;9102;53.548;9.926;2023-05-29T01:25:11;10.60;99.90
17954;DHT22;9102;53.548;9.926;2023-05-29T01:27:41;10.60;99.90
17954;DHT22;9102;53.548;9.926;2023-05-29T01:30:11;10.50;99.90
17954;DHT22;9102;53.548;9.926;2023-05-29T01:32:39;10.40;99.90
17954;DHT22;9102;53.548;9.926;2023-05-29T01:35:07;10.40;99.90
17954;DHT22;9102;53.548;9.926;2023-05-29T01:37:34;10.30;99.90
17954;DHT22;9102;53.548;9.926;2023-05-29T01:40:01;10.30;99.90
17954;DHT22;9102;53.548;9.926;2023-05-29T01:42:29;10.20;99.90
17954;DHT22;9102;53.548;9.926;2023-05-29T01:44:58;10.20;99.90
17954;DHT22;9102;53.548;9.926;2023-05-29T01:47:25;10.20;99.90
17954;DHT22;9102;53.548;9.926;2023-05-29T01:49:52;10.20;99.90
17954;DHT22;9102;53.548;9.926;2023-05-29T01:52:20;10.10;99.90
17954;DHT22;9102;53.548;9.926;2023-05-29T01:54:47;10.20;99.90
17954;DHT22;9102;53.548;9.926;2023-05-29T01:57:14;10.10;99.90
17954;DHT22;9102;53.548;9.926;2023-05-29T01:59:41;10.00;99.90
17954;DHT22;9102;53.548;9.926;2023-05-29T02:02:09;10.00;99.90
17954;DHT22;9102;53.548;9.926;2023-05-29T02:04:37;10.00;99.90
17954;DHT22;9102;53.548;9.926;2023-05-29T02:07:04;10.00;99.90
17954;DHT22;9102;53.548;9.926;2023-05-29T02:09:31;10.00;99.90
17954;DHT22;9102;53.548;9.926;2023-05-29T02:11:58;9.90;99.90
17954;DHT22;9102;53.548;9.926;2023-05-29T02:14:26;9.90;99.90
17954;DHT22;9102;53.548;9.926;2023-05-29T02:16:52;9.90;99.90
17954;DHT22;9102;53.548;9.926;2023-05-29T02:19:21;9.90;99.90
17954;DHT22;9102;53.548;9.926;2023-05-29T02:21:50;9.90;99.90
17954;DHT22;9102;53.548;9.926;2023-05-29T02:24:17;10.00;99.90
17954;DHT22;9102;53.548;9.926;2023-05-29T02:26:45;9.90;99.90
17954;DHT22;9102;53.548;9.926;2023-05-29T02:29:12;9.80;99.90
17954;DHT22;9102;53.548;9.926;2023-05-29T02:31:38;9.70;99.90
17954;DHT22;9102;53.548;9.926;2023-05-29T02:34:05;9.80;99.90
17954;DHT22;9102;53.548;9.926;2023-05-29T02:36:33;9.80;99.90
17954;DHT22;9102;53.548;9.926;2023-05-29T02:39:02;9.80;99.90
17954;DHT22;9102;53.548;9.926;2023-05-29T02:41:29;9.80;99.90
17954;DHT22;9102;53.548;9.926;2023-05-29T02:43:56;9.70;99.90
17954;DHT22;9102;53.548;9.926;2023-05-29T02:46:23;9.60;99.90
17954;DHT22;9102;53.548;9.926;2023-05-29T02:48:49;9.70;99.90
17954;DHT22;9102;53.548;9.926;2023-05-29T02:51:16;9.70;99.90
17954;DHT22;9102;53.548;9.926;2023-05-29T02:53:44;9.80;99.90
17954;DHT22;9102;53.548;9.926;2023-05-29T02:56:11;9.60;99.90
17954;DHT22;9102;53.548;9.926;2023-05-29T02:58:38;9.60;99.90
17954;DHT22;9102;53.548;9.926;2023-05-29T03:01:05;9.40;99.90
17954;DHT22;9102;53.548;9.926;2023-05-29T03:03:31;9.50;99.90
17954;DHT22;9102;53.548;9.926;2023-05-29T03:05:58;9.50;99.90
17954;DHT22;9102;53.548;9.926;2023-05-29T03:08:26;9.50;99.90
17954;DHT22;9102;53.548;9.926;2023-05-29T03:10:54;9.60;99.90
17954;DHT22;9102;53.548;9.926;2023-05-29T03:13:22;9.50;99.90
17954;DHT22;9102;53.548;9.926;2023-05-29T03:15:49;9.60;99.90
17954;DHT22;9102;53.548;9.926;2023-05-29T03:18:16;9.50;99.90
17954;DHT22;9102;53.548;9.926;2023-05-29T03:20:43;9.50;99.90
17954;DHT22;9102;53.548;9.926;2023-05-29T03:23:10;9.50;99.90
17954;DHT22;9102;53.548;9.926;2023-05-29T03:25:36;9.40;99.90
17954;DHT22;9102;53.548;9.926;2023-05-29T03:28:06;9.40;99.90
17954;DHT22;9102;53.548;9.926;2023-05-29T03:30:33;9.40;99.90
17954;DHT22;9102;53.548;9.926;2023-05-29T03:33:00;9.40;99.90
17954;DHT22;9102;53.548;9.926;2023-05-29T03:35:29;9.40;99.90
17954;DHT22;9102;53.548;9.926;2023-05-29T03:37:55;9.30;99.90
17954;DHT22;9102;53.548;9.926;2023-05-29T03:40:23;9.30;99.90
17954;DHT22;9102;53.548;9.926;2023-05-29T03:42:50;9.40;99.90
17954;DHT22;9102;53.548;9.926;2023-05-29T03:45:18;9.40;99.90
17954;DHT22;9102;53.548;9.926;2023-05-29T03:47:45;9.50;99.90
17954;DHT22;9102;53.548;9.926;2023-05-29T03:50:12;9.50;99.90
17954;DHT22;9102;53.548;9.926;2023-05-29T03:52:40;9.50;99.90
17954;DHT22;9102;53.548;9.926;2023-05-29T03:55:09;9.50;99.90
17954;DHT22;9102;53.548;9.926;2023-05-29T03:57:38;9.40;99.90
17954;DHT22;9102;53.548;9.926;2023-05-29T04:00:07;9.40;99.90
17954;DHT22;9102;53.548;9.926;2023-05-29T04:02:37;9.50;99.90
17954;DHT22;9102;53.548;9.926;2023-05-29T04:05:04;9.40;99.90
17954;DHT22;9102;53.548;9.926;2023-05-29T04:07:31;9.40;99.90
17954;DHT22;9102;53.548;9.926;2023-05-29T04:09:58;9.50;99.90
17954;DHT22;9102;53.548;9.926;2023-05-29T04:12:25;9.50;99.90
17954;DHT22;9102;53.548;9.926;2023-05-29T04:14:52;9.40;99.90
17954;DHT22;9102;53.548;9.926;2023-05-29T04:17:19;9.40;99.90
17954;DHT22;9102;53.548;9.926;2023-05-29T04:19:47;9.50;99.90
17954;DHT22;9102;53.548;9.926;2023-05-29T04:22:14;9.60;99.90
17954;DHT22;9102;53.548;9.926;2023-05-29T04:24:41;9.70;99.90
17954;DHT22;9102;53.548;9.926;2023-05-29T04:27:08;9.70;99.90
17954;DHT22;9102;53.548;9.926;2023-05-29T04:29:38;9.80;99.90
17954;DHT22;9102;53.548;9.926;2023-05-29T04:32:06;9.80;99.90
17954;DHT22;9102;53.548;9.926;2023-05-29T04:34:34;9.70;99.90
17954;DHT22;9102;53.548;9.926;2023-05-29T04:37:02;9.90;99.90
17954;DHT22;9102;53.548;9.926;2023-05-29T04:39:29;10.00;99.90
17954;DHT22;9102;53.548;9.926;2023-05-29T04:41:56;10.20;99.90
17954;DHT22;9102;53.548;9.926;2023-05-29T04:44:24;10.30;99.90
17954;DHT22;9102;53.548;9.926;2023-05-29T04:46:52;10.30;99.90
17954;DHT22;9102;53.548;9.926;2023-05-29T04:49:19;10.40;99.90
17954;DHT22;9102;53.548;9.926;2023-05-29T04:51:47;10.60;99.90
17954;DHT22;9102;53.548;9.926;2023-05-29T04:54:15;11.00;99.90
17954;DHT22;9102;53.548;9.926;2023-05-29T04:56:42;11.30;99.90
17954;DHT22;9102;53.548;9.926;2023-05-29T04:59:08;11.30;99.90
17954;DHT22;9102;53.548;9.926;2023-05-29T05:01:35;11.30;99.90
17954;DHT22;9102;53.548;9.926;2023-05-29T05:04:02;11.30;99.90
17954;DHT22;9102;53.548;9.926;2023-05-29T05:06:29;11.30;99.90
17954;DHT22;9102;53.548;9.926;2023-05-29T05:08:56;11.10;99.90
17954;DHT22;9102;53.548;9.926;2023-05-29T05:11:24;10.70;99.90
17954;DHT22;9102;53.548;9.926;2023-05-29T05:13:51;10.70;99.90
17954;DHT22;9102;53.548;9.926;2023-05-29T05:16:18;10.70;99.90
17954;DHT22;9102;53.548;9.926;2023-05-29T05:18:45;10.50;99.90
17954;DHT22;9102;53.548;9.926;2023-05-29T05:21:11;10.50;99.90
17954;DHT22;9102;53.548;9.926;2023-05-29T05:23:40;10.50;99.90
17954;DHT22;9102;53.548;9.926;2023-05-29T05:26:07;10.60;99.90
17954;DHT22;9102;53.548;9.926;2023-05-29T05:28:35;10.70;99.90
17954;DHT22;9102;53.548;9.926;2023-05-29T05:31:01;10.50;99.90
17954;DHT22;9102;53.548;9.926;2023-05-29T05:33:28;10.50;99.90
17954;DHT22;9102;53.548;9.926;2023-05-29T05:35:55;10.50;99.90
17954;DHT22;9102;53.548;9.926;2023-05-29T05:38:22;10.70;99.90
17954;DHT22;9102;53.548;9.926;2023-05-29T05:40:49;10.70;99.90
17954;DHT22;9102;53.548;9.926;2023-05-29T05:43:15;10.70;99.90
17954;DHT22;9102;53.548;9.926;2023-05-29T05:45:44;10.60;99.90
17954;DHT22;9102;53.548;9.926;2023-05-29T05:48:11;10.70;99.90
17954;DHT22;9102;53.548;9.926;2023-05-29T05:50:38;10.90;99.90
17954;DHT22;9102;53.548;9.926;2023-05-29T05:53:05;10.80;99.90
17954;DHT22;9102;53.548;9.926;2023-05-29T05:55:32;10.80;99.90
17954;DHT22;9102;53.548;9.926;2023-05-29T05:57:59;10.90;99.90
17954;DHT22;9102;53.548;9.926;2023-05-29T06:00:25;10.70;99.90
17954;DHT22;9102;53.548;9.926;2023-05-29T06:02:54;10.70;99.90
17954;DHT22;9102;53.548;9.926;2023-05-29T06:05:22;10.90;99.90
17954;DHT22;9102;53.548;9.926;2023-05-29T06:07:48;10.90;99.90
17954;DHT22;9102;53.548;9.926;2023-05-29T06:10:15;11.00;99.90
17954;DHT22;9102;53.548;9.926;2023-05-29T06:12:42;11.10;99.90
17954;DHT22;9102;53.548;9.926;2023-05-29T06:15:10;11.10;99.90
17954;DHT22;9102;53.548;9.926;2023-05-29T06:17:36;11.10;99.90
17954;DHT22;9102;53.548;9.926;2023-05-29T06:20:05;11.00;99.90
17954;DHT22;9102;53.548;9.926;2023-05-29T06:22:35;10.90;99.90
17954;DHT22;9102;53.548;9.926;2023-05-29T06:25:02;11.10;99.90
17954;DHT22;9102;53.548;9.926;2023-05-29T06:27:29;11.00;99.90
17954;DHT22;9102;53.548;9.926;2023-05-29T06:29:56;11.00;99.90
17954;DHT22;9102;53.548;9.926;2023-05-29T06:32:22;11.10;99.90
17954;DHT22;9102;53.548;9.926;2023-05-29T06:34:52;11.10;99.90
17954;DHT22;9102;53.548;9.926;2023-05-29T06:37:20;11.20;99.90
17954;DHT22;9102;53.548;9.926;2023-05-29T06:39:46;11.20;99.90
17954;DHT22;9102;53.548;9.926;2023-05-29T06:42:13;11.40;99.90
17954;DHT22;9102;53.548;9.926;2023-05-29T06:44:40;11.30;99.90
17954;DHT22;9102;53.548;9.926;2023-05-29T06:47:07;11.40;99.90
17954;DHT22;9102;53.548;9.926;2023-05-29T06:49:34;11.50;99.90
17954;DHT22;9102;53.548;9.926;2023-05-29T06:52:00;11.50;99.90
17954;DHT22;9102;53.548;9.926;2023-05-29T06:54:29;11.60;99.90
17954;DHT22;9102;53.548;9.926;2023-05-29T06:56:55;11.70;99.90
17954;DHT22;9102;53.548;9.926;2023-05-29T06:59:22;11.70;99.90
17954;DHT22;9102;53.548;9.926;2023-05-29T07:01:49;11.70;99.90
17954;DHT22;9102;53.548;9.926;2023-05-29T07:04:16;11.80;99.90
17954;DHT22;9102;53.548;9.926;2023-05-29T07:06:42;11.80;99.90
17954;DHT22;9102;53.548;9.926;2023-05-29T07:09:09;11.70;99.90
17954;DHT22;9102;53.548;9.926;2023-05-29T07:11:38;11.90;99.90
17954;DHT22;9102;53.548;9.926;2023-05-29T07:14:04;12.00;99.90
17954;DHT22;9102;53.548;9.926;2023-05-29T07:16:32;11.90;99.90
17954;DHT22;9102;53.548;9.926;2023-05-29T07:18:58;11.80;99.90
17954;DHT22;9102;53.548;9.926;2023-05-29T07:21:25;11.70;99.90
17954;DHT22;9102;53.548;9.926;2023-05-29T07:23:52;11.80;99.90
17954;DHT22;9102;53.548;9.926;2023-05-29T07:26:19;11.80;99.90
17954;DHT22;9102;53.548;9.926;2023-05-29T07:28:47;12.00;99.90
17954;DHT22;9102;53.548;9.926;2023-05-29T07:31:14;12.00;99.90
17954;DHT22;9102;53.548;9.926;2023-05-29T07:33:41;12.00;99.90
17954;DHT22;9102;53.548;9.926;2023-05-29T07:36:08;12.10;99.90
17954;DHT22;9102;53.548;9.926;2023-05-29T07:38:35;12.10;99.90
17954;DHT22;9102;53.548;9.926;2023-05-29T07:41:01;12.20;99.90
17954;DHT22;9102;53.548;9.926;2023-05-29T07:43:28;12.30;99.90
17954;DHT22;9102;53.548;9.926;2023-05-29T07:45:56;12.50;99.90
17954;DHT22;9102;53.548;9.926;2023-05-29T07:48:24;12.70;99.90
17954;DHT22;9102;53.548;9.926;2023-05-29T07:50:51;12.80;99.90
17954;DHT22;9102;53.548;9.926;2023-05-29T07:53:18;12.90;99.90
17954;DHT22;9102;53.548;9.926;2023-05-29T07:55:45;12.90;99.90
17954;DHT22;9102;53.548;9.926;2023-05-29T07:58:12;12.90;99.90
17954;DHT22;9102;53.548;9.926;2023-05-29T08:00:39;12.80;99.90
17954;DHT22;9102;53.548;9.926;2023-05-29T08:03:07;12.80;99.90
17954;DHT22;9102;53.548;9.926;2023-05-29T08:05:34;13.00;99.90
17954;DHT22;9102;53.548;9.926;2023-05-29T08:08:00;13.10;99.90
17954;DHT22;9102;53.548;9.926;2023-05-29T08:10:27;13.10;99.90
17954;DHT22;9102;53.548;9.926;2023-05-29T08:12:54;13.20;99.90
17954;DHT22;9102;53.548;9.926;2023-05-29T08:15:21;13.30;99.90
17954;DHT22;9102;53.548;9.926;2023-05-29T08:17:49;13.30;99.90
17954;DHT22;9102;53.548;9.926;2023-05-29T08:20:17;13.20;99.90
17954;DHT22;9102;53.548;9.926;2023-05-29T08:22:44;13.30;99.90
17954;DHT22;9102;53.548;9.926;2023-05-29T08:25:11;13.20;99.90
17954;DHT22;9102;53.548;9.926;2023-05-29T08:27:38;13.00;99.90
17954;DHT22;9102;53.548;9.926;2023-05-29T08:30:06;13.40;99.90
17954;DHT22;9102;53.548;9.926;2023-05-29T08:32:33;13.30;99.90
17954;DHT22;9102;53.548;9.926;2023-05-29T08:35:00;13.30;99.90
17954;DHT22;9102;53.548;9.926;2023-05-29T08:37:28;13.40;99.90
17954;DHT22;9102;53.548;9.926;2023-05-29T08:39:55;13.50;99.90
17954;DHT22;9102;53.548;9.926;2023-05-29T08:42:29;13.60;99.90
17954;DHT22;9102;53.548;9.926;2023-05-29T08:45:02;13.80;99.90
17954;DHT22;9102;53.548;9.926;2023-05-29T08:47:33;13.90;99.90
17954;DHT22;9102;53.548;9.926;2023-05-29T08:50:01;14.00;99.90
17954;DHT22;9102;53.548;9.926;2023-05-29T08:52:34;14.00;99.90
17954;DHT22;9102;53.548;9.926;2023-05-29T08:55:02;14.00;99.90
17954;DHT22;9102;53.548;9.926;2023-05-29T08:57:29;13.90;99.90
17954;DHT22;9102;53.548;9.926;2023-05-29T08:59:56;13.90;99.90
17954;DHT22;9102;53.548;9.926;2023-05-29T09:02:23;13.90;99.90
17954;DHT22;9102;53.548;9.926;2023-05-29T09:04:50;13.90;99.90
17954;DHT22;9102;53.548;9.926;2023-05-29T09:07:19;13.90;99.90
17954;DHT22;9102;53.548;9.926;2023-05-29T09:09:47;14.00;99.90
17954;DHT22;9102;53.548;9.926;2023-05-29T09:12:14;14.20;99.90
17954;DHT22;9102;53.548;9.926;2023-05-29T09:14:42;14.40;99.90
17954;DHT22;9102;53.548;9.926;2023-05-29T09:17:10;14.50;99.90
17954;DHT22;9102;53.548;9.926;2023-05-29T09:19:38;14.60;99.90
17954;DHT22;9102;53.548;9.926;2023-05-29T09:22:08;14.70;99.90
17954;DHT22;9102;53.548;9.926;2023-05-29T09:24:36;14.90;99.90
17954;DHT22;9102;53.548;9.926;2023-05-29T09:27:05;14.80;99.90
17954;DHT22;9102;53.548;9.926;2023-05-29T09:29:37;14.90;99.90
17954;DHT22;9102;53.548;9.926;2023-05-29T09:32:06;14.90;99.90
17954;DHT22;9102;53.548;9.926;2023-05-29T09:34:34;15.10;99.90
17954;DHT22;9102;53.548;9.926;2023-05-29T09:37:02;15.10;99.90
17954;DHT22;9102;53.548;9.926;2023-05-29T09:39:43;15.20;99.90
17954;DHT22;9102;53.548;9.926;2023-05-29T09:42:12;15.30;99.90
17954;DHT22;9102;53.548;9.926;2023-05-29T09:44:40;15.40;99.90
17954;DHT22;9102;53.548;9.926;2023-05-29T09:47:07;15.50;99.90
17954;DHT22;9102;53.548;9.926;2023-05-29T09:49:34;15.30;99.90
17954;DHT22;9102;53.548;9.926;2023-05-29T09:52:04;15.40;99.90
17954;DHT22;9102;53.548;9.926;2023-05-29T09:54:34;15.50;99.90
17954;DHT22;9102;53.548;9.926;2023-05-29T09:57:05;15.60;99.90
17954;DHT22;9102;53.548;9.926;2023-05-29T09:59:34;15.50;99.90
17954;DHT22;9102;53.548;9.926;2023-05-29T10:02:06;15.60;99.90
17954;DHT22;9102;53.548;9.926;2023-05-29T10:04:49;15.70;99.90
17954;DHT22;9102;53.548;9.926;2023-05-29T10:07:25;15.50;99.90
17954;DHT22;9102;53.548;9.926;2023-05-29T10:09:59;15.60;99.90
17954;DHT22;9102;53.548;9.926;2023-05-29T10:12:36;15.90;99.90
17954;DHT22;9102;53.548;9.926;2023-05-29T10:15:11;16.00;99.90
17954;DHT22;9102;53.548;9.926;2023-05-29T10:17:49;15.90;99.90
17954;DHT22;9102;53.548;9.926;2023-05-29T10:20:20;16.00;99.90
17954;DHT22;9102;53.548;9.926;2023-05-29T10:22:56;15.90;99.90
17954;DHT22;9102;53.548;9.926;2023-05-29T10:25:24;16.00;99.90
17954;DHT22;9102;53.548;9.926;2023-05-29T10:27:55;16.10;99.90
17954;DHT22;9102;53.548;9.926;2023-05-29T10:30:31;16.00;99.90
17954;DHT22;9102;53.548;9.926;2023-05-29T10:33:19;16.30;99.90
17954;DHT22;9102;53.548;9.926;2023-05-29T10:35:53;16.40;99.90
17954;DHT22;9102;53.548;9.926;2023-05-29T10:38:24;16.40;99.90
17954;DHT22;9102;53.548;9.926;2023-05-29T10:40:56;16.50;99.90
17954;DHT22;9102;53.548;9.926;2023-05-29T10:43:43;16.60;99.90
17954;DHT22;9102;53.548;9.926;2023-05-29T10:46:11;16.60;99.90
17954;DHT22;9102;53.548;9.926;2023-05-29T10:48:39;16.50;99.90
17954;DHT22;9102;53.548;9.926;2023-05-29T10:51:10;16.70;99.90
17954;DHT22;9102;53.548;9.926;2023-05-29T10:53:50;16.70;99.90
17954;DHT22;9102;53.548;9.926;2023-05-29T10:56:22;16.90;99.90
17954;DHT22;9102;53.548;9.926;2023-05-29T10:58:57;16.90;99.90
17954;DHT22;9102;53.548;9.926;2023-05-29T11:01:28;16.90;99.90
17954;DHT22;9102;53.548;9.926;2023-05-29T11:04:29;17.00;99.90
17954;DHT22;9102;53.548;9.926;2023-05-29T11:06:58;17.00;99.90
17954;DHT22;9102;53.548;9.926;2023-05-29T11:09:33;17.10;99.90
17954;DHT22;9102;53.548;9.926;2023-05-29T11:12:17;17.10;99.90
17954;DHT22;9102;53.548;9.926;2023-05-29T11:15:02;17.10;99.90
17954;DHT22;9102;53.548;9.926;2023-05-29T11:17:32;17.30;99.90
17954;DHT22;9102;53.548;9.926;2023-05-29T11:20:02;17.30;99.90
17954;DHT22;9102;53.548;9.926;2023-05-29T11:22:48;17.30;99.90
17954;DHT22;9102;53.548;9.926;2023-05-29T11:25:20;17.40;99.90
17954;DHT22;9102;53.548;9.926;2023-05-29T11:27:47;17.40;99.90
17954;DHT22;9102;53.548;9.926;2023-05-29T11:30:14;17.40;99.90
17954;DHT22;9102;53.548;9.926;2023-05-29T11:32:45;17.50;99.90
17954;DHT22;9102;53.548;9.926;2023-05-29T11:35:12;17.60;99.90
17954;DHT22;9102;53.548;9.926;2023-05-29T11:37:41;17.70;99.90
17954;DHT22;9102;53.548;9.926;2023-05-29T11:40:12;17.80;99.90
17954;DHT22;9102;53.548;9.926;2023-05-29T11:42:41;17.60;99.80
17954;DHT22;9102;53.548;9.926;2023-05-29T11:45:13;17.70;99.60
17954;DHT22;9102;53.548;9.926;2023-05-29T11:47:56;17.70;99.90
17954;DHT22;9102;53.548;9.926;2023-05-29T11:50:25;17.80;99.90
17954;DHT22;9102;53.548;9.926;2023-05-29T11:52:52;17.90;99.40
17954;DHT22;9102;53.548;9.926;2023-05-29T11:55:20;17.90;98.20
17954;DHT22;9102;53.548;9.926;2023-05-29T11:57:47;17.90;98.30
17954;DHT22;9102;53.548;9.926;2023-05-29T12:00:15;17.90;98.90
17954;DHT22;9102;53.548;9.926;2023-05-29T12:02:43;17.90;99.20
17954;DHT22;9102;53.548;9.926;2023-05-29T12:05:14;18.00;98.90
17954;DHT22;9102;53.548;9.926;2023-05-29T12:07:47;18.00;98.70
17954;DHT22;9102;53.548;9.926;2023-05-29T12:10:16;18.00;98.70
17954;DHT22;9102;53.548;9.926;2023-05-29T12:12:47;18.10;98.10
17954;DHT22;9102;53.548;9.926;2023-05-29T12:15:14;18.20;97.90
17954;DHT22;9102;53.548;9.926;2023-05-29T12:17:41;18.30;96.20
17954;DHT22;9102;53.548;9.926;2023-05-29T12:20:10;18.20;96.50
17954;DHT22;9102;53.548;9.926;2023-05-29T12:22:41;18.20;97.00
17954;DHT22;9102;53.548;9.926;2023-05-29T12:25:10;18.30;96.60
17954;DHT22;9102;53.548;9.926;2023-05-29T12:27:38;18.30;96.50
17954;DHT22;9102;53.548;9.926;2023-05-29T12:30:09;18.30;94.70
17954;DHT22;9102;53.548;9.926;2023-05-29T12:32:37;18.30;95.10
17954;DHT22;9102;53.548;9.926;2023-05-29T12:35:12;18.40;95.20
17954;DHT22;9102;53.548;9.926;2023-05-29T12:37:45;18.40;95.40
17954;DHT22;9102;53.548;9.926;2023-05-29T12:40:16;18.60;93.90
17954;DHT22;9102;53.548;9.926;2023-05-29T12:42:44;18.70;92.80
17954;DHT22;9102;53.548;9.926;2023-05-29T12:45:11;18.60;93.50
17954;DHT22;9102;53.548;9.926;2023-05-29T12:47:44;18.70;93.90
17954;DHT22;9102;53.548;9.926;2023-05-29T12:50:22;18.70;94.30
17954;DHT22;9102;53.548;9.926;2023-05-29T12:52:58;18.50;94.70
17954;DHT22;9102;53.548;9.926;2023-05-29T12:55:26;18.60;94.60
17954;DHT22;9102;53.548;9.926;2023-05-29T12:57:54;18.70;94.00
17954;DHT22;9102;53.548;9.926;2023-05-29T13:00:21;18.90;93.20
17954;DHT22;9102;53.548;9.926;2023-05-29T13:02:49;18.90;92.60
17954;DHT22;9102;53.548;9.926;2023-05-29T13:05:16;19.10;92.10
17954;DHT22;9102;53.548;9.926;2023-05-29T13:07:45;19.00;91.60
17954;DHT22;9102;53.548;9.926;2023-05-29T13:10:14;19.00;91.60
17954;DHT22;9102;53.548;9.926;2023-05-29T13:12:41;18.90;90.90
17954;DHT22;9102;53.548;9.926;2023-05-29T13:15:09;18.80;90.60
17954;DHT22;9102;53.548;9.926;2023-05-29T13:17:36;18.80;90.40
17954;DHT22;9102;53.548;9.926;2023-05-29T13:20:07;18.80;90.70
17954;DHT22;9102;53.548;9.926;2023-05-29T13:22:35;18.90;90.60
17954;DHT22;9102;53.548;9.926;2023-05-29T13:25:02;19.00;90.80
17954;DHT22;9102;53.548;9.926;2023-05-29T13:27:33;19.20;90.70
17954;DHT22;9102;53.548;9.926;2023-05-29T13:30:01;19.20;91.60
17954;DHT22;9102;53.548;9.926;2023-05-29T13:32:28;19.30;91.20
17954;DHT22;9102;53.548;9.926;2023-05-29T13:34:55;19.30;91.40
17954;DHT22;9102;53.548;9.926;2023-05-29T13:37:23;19.20;91.60
17954;DHT22;9102;53.548;9.926;2023-05-29T13:39:50;19.30;91.40
17954;DHT22;9102;53.548;9.926;2023-05-29T13:42:17;19.20;92.40
17954;DHT22;9102;53.548;9.926;2023-05-29T13:44:46;19.00;92.20
17954;DHT22;9102;53.548;9.926;2023-05-29T13:47:13;19.00;92.50
17954;DHT22;9102;53.548;9.926;2023-05-29T13:49:39;19.00;92.70
17954;DHT22;9102;53.548;9.926;2023-05-29T13:52:07;19.10;92.90
17954;DHT22;9102;53.548;9.926;2023-05-29T13:54:34;19.20;92.30
17954;DHT22;9102;53.548;9.926;2023-05-29T13:57:01;19.30;91.70
17954;DHT22;9102;53.548;9.926;2023-05-29T13:59:28;19.20;92.10
17954;DHT22;9102;53.548;9.926;2023-05-29T14:01:56;19.30;92.20
17954;DHT22;9102;53.548;9.926;2023-05-29T14:04:23;19.20;92.80
17954;DHT22;9102;53.548;9.926;2023-05-29T14:06:50;19.30;93.70
17954;DHT22;9102;53.548;9.926;2023-05-29T14:09:17;19.40;94.00
17954;DHT22;9102;53.548;9.926;2023-05-29T14:11:52;19.40;93.30
17954;DHT22;9102;53.548;9.926;2023-05-29T14:14:18;19.30;93.80
17954;DHT22;9102;53.548;9.926;2023-05-29T14:16:45;19.10;94.70
17954;DHT22;9102;53.548;9.926;2023-05-29T14:19:13;19.20;94.90
17954;DHT22;9102;53.548;9.926;2023-05-29T14:21:40;19.20;95.20
17954;DHT22;9102;53.548;9.926;2023-05-29T14:24:07;19.10;95.30
17954;DHT22;9102;53.548;9.926;2023-05-29T14:26:34;19.00;96.10
17954;DHT22;9102;53.548;9.926;2023-05-29T14:29:02;19.10;96.30
17954;DHT22;9102;53.548;9.926;2023-05-29T14:31:28;19.00;96.30
17954;DHT22;9102;53.548;9.926;2023-05-29T14:33:55;19.10;96.60
17954;DHT22;9102;53.548;9.926;2023-05-29T14:36:24;19.20;96.50
17954;DHT22;9102;53.548;9.926;2023-05-29T14:38:50;19.20;96.60
17954;DHT22;9102;53.548;9.926;2023-05-29T14:41:17;19.30;96.70
17954;DHT22;9102;53.548;9.926;2023-05-29T14:43:44;19.30;96.20
17954;DHT22;9102;53.548;9.926;2023-05-29T14:46:11;19.20;96.40
17954;DHT22;9102;53.548;9.926;2023-05-29T14:48:38;19.30;96.30
17954;DHT22;9102;53.548;9.926;2023-05-29T14:51:05;19.40;96.50
17954;DHT22;9102;53.548;9.926;2023-05-29T14:53:35;19.40;96.50
17954;DHT22;9102;53.548;9.926;2023-05-29T14:56:04;19.50;96.50
17954;DHT22;9102;53.548;9.926;2023-05-29T14:58:31;19.50;96.10
17954;DHT22;9102;53.548;9.926;2023-05-29T15:00:58;19.30;96.00
17954;DHT22;9102;53.548;9.926;2023-05-29T15:03:25;19.20;96.10
17954;DHT22;9102;53.548;9.926;2023-05-29T15:05:52;19.10;96.00
17954;DHT22;9102;53.548;9.926;2023-05-29T15:08:19;19.00;96.30
17954;DHT22;9102;53.548;9.926;2023-05-29T15:10:48;19.10;96.50
17954;DHT22;9102;53.548;9.926;2023-05-29T15:13:15;19.00;96.70
17954;DHT22;9102;53.548;9.926;2023-05-29T15:15:41;19.10;96.40
17954;DHT22;9102;53.548;9.926;2023-05-29T15:18:08;19.00;96.40
17954;DHT22;9102;53.548;9.926;2023-05-29T15:20:35;19.20;96.50
17954;DHT22;9102;53.548;9.926;2023-05-29T15:23:02;19.10;96.10
17954;DHT22;9102;53.548;9.926;2023-05-29T15:25:29;19.10;96.10
17954;DHT22;9102;53.548;9.926;2023-05-29T15:27:57;19.00;96.20
17954;DHT22;9102;53.548;9.926;2023-05-29T15:30:24;19.10;96.10
17954;DHT22;9102;53.548;9.926;2023-05-29T15:32:51;19.00;95.50
17954;DHT22;9102;53.548;9.926;2023-05-29T15:35:18;19.00;95.70
17954;DHT22;9102;53.548;9.926;2023-05-29T15:37:45;19.00;95.60
17954;DHT22;9102;53.548;9.926;2023-05-29T15:40:12;18.90;95.80
17954;DHT22;9102;53.548;9.926;2023-05-29T15:42:39;18.90;95.50
17954;DHT22;9102;53.548;9.926;2023-05-29T15:45:07;18.90;95.20
17954;DHT22;9102;53.548;9.926;2023-05-29T15:47:34;19.00;95.30
17954;DHT22;9102;53.548;9.926;2023-05-29T15:50:01;19.00;94.80
17954;DHT22;9102;53.548;9.926;2023-05-29T15:52:28;19.00;94.80
17954;DHT22;9102;53.548;9.926;2023-05-29T15:54:55;18.90;94.60